Observations for JERSEY AIRPORT, United Kingdom (EGJJ)

EGJJ 220720Z 22006KT 9999 FEW026 14/09 Q1021
EGJJ 220650Z 22005KT 9999 -RA FEW026 13/10 Q1021
EGJJ 220620Z 22006KT 9999 -RA FEW026 13/10 Q1021
EGJJ 220550Z 23007KT 9999 -RA FEW026 13/10 Q1021
EGJJ 220520Z 24008KT 9999 -RA FEW026 14/10 Q1021
EGJJ 220450Z 24009KT 9999 -RA FEW021 14/10 Q1021
EGJJ 220420Z AUTO 24009KT 9999 OVC021/// 14/11 Q1021 RERA   
EGJJ 220350Z AUTO 25010KT 9999 BKN019/// BKN024/// OVC030/// 13/11 Q1021 RERA   
EGJJ 220320Z AUTO 26008KT 9999 SCT026/// BKN031/// BKN037/// 15/10 Q1021
EGJJ 220250Z AUTO 26010KT 9999 FEW030/// 14/09 Q1022
EGJJ 220220Z AUTO 27010KT 9999 FEW029/// SCT033/// 14/09 Q1022  
EGJJ 220150Z AUTO 27010KT 9999 FEW034/// 14/08 Q1022
EGJJ 220120Z AUTO 27011KT 9999 FEW031/// SCT039/// 14/08 Q1022  
EGJJ 220050Z AUTO 27012KT 9999 FEW029/// 14/08 Q1022
EGJJ 220020Z AUTO 27011KT 9999 NCD 14/08 Q1022  
EGJJ 212350Z AUTO 27012KT 9999 FEW027/// 14/08 Q1022
EGJJ 212320Z AUTO 27010KT 9999 SCT024/// BKN029/// BKN032/// 14/09 Q1022
EGJJ 212250Z AUTO 27011KT 9999 SCT027/// BKN036/// 14/09 Q1022  
EGJJ 212220Z AUTO 27011KT 9999 SCT028/// 14/09 Q1022
EGJJ 212150Z AUTO 27014KT 9999 SCT027/// SCT032/// 14/09 Q1022  
EGJJ 212120Z AUTO 27012KT 9999 BKN026/// BKN030/// BKN035/// 14/09 Q1022
EGJJ 212050Z 27013KT 9999 VCSH SCT027 14/09 Q1021   
EGJJ 212020Z 27012KT 9999 VCSH SCT028 14/09 Q1021   
EGJJ 211950Z 27014KT 9999 FEW026 14/09 Q1021
EGJJ 211920Z 27015KT 9999 FEW028 SCT033 14/09 Q1021 
EGJJ 211850Z 27018G28KT 9999 VCSH FEW030 SCT035 15/09 Q1020 
EGJJ 211820Z 27018KT 9999 VCSH SCT032 15/08 Q1020   
EGJJ 211750Z 27018KT 9999 FEW030 SCT037 15/08 Q1020 
EGJJ 211720Z 27017KT 9999 FEW030 SCT036 15/08 Q1020 
EGJJ 211650Z 27020KT 9999 FEW032 SCT036 16/08 Q1019 
EGJJ 211620Z 26020KT 9999 FEW031 SCT036 16/08 Q1019 
EGJJ 211550Z 27020G30KT 9999 SCT034 16/08 Q1019 
EGJJ 211520Z 27021KT 9999 FEW034 17/06 Q1019
EGJJ 211450Z 27021KT 9999 FEW036 17/07 Q1018
EGJJ 211420Z 28019KT 9999 FEW036 17/08 Q1018
EGJJ 211350Z 26022G33KT 9999 FEW036 17/08 Q1018 
EGJJ 211320Z 27023KT 9999 FEW036 17/07 Q1018
EGJJ 211250Z 27021G31KT 9999 SCT037 16/07 Q1017 
EGJJ 211220Z 27020KT 9999 FEW038 16/07 Q1017
EGJJ 211150Z 27021KT 9999 SCT034 17/08 Q1017
EGJJ 211120Z 27020KT 9999 FEW036 17/08 Q1016
EGJJ 211050Z 27021KT 9999 FEW038 17/07 Q1016
EGJJ 211020Z 27020G30KT 9999 FEW036 16/07 Q1015 
EGJJ 210950Z 28019KT 9999 FEW031 SCT037 16/08 Q1015 
EGJJ 210920Z 28018KT 9999 -SHRA FEW027 SCT031 14/08 Q1015   
EGJJ 210850Z 29016KT 9999 FEW031 SCT039 15/08 Q1014 RERA
EGJJ 210820Z 29015KT 9999 -SHRA FEW031 SCT038 14/08 Q1014   
EGJJ 210750Z 29017KT 9999 SCT033 14/07 Q1013
EGJJ 210720Z 29017G27KT 9999 SCT032 13/07 Q1013 
EGJJ 210650Z 29017KT 9999 FEW027 SCT032 13/08 Q1012